Danville, VA (24540)

5:47 PM EDT on August 16, 2017 (GMT -0400)
Brentwood Community | | Change Station

Elev 548 ft 36.62 °N, 79.40 °W | Updated 25 seconds ago

Partly Cloudy
Partly Cloudy
91.8 °F
Feels Like 102 °F
N
2.2
Wind Variable Wind from SSE

Today
High -- | Low -- °F
--% Chance of Precip.
Yesterday
High -- | Low -- °F
Precip. -- in
Pressure 29.97 in
Visibility 10.0 miles
Clouds Scattered Clouds 4600 ft
Mostly Cloudy 6000 ft
Mostly Cloudy 8000 ft
Heat Index 102 °F
Dew Point 74 °F
Humidity 56%
Rainfall 0.00 in
Snow Depth Not available.
6:36 AM 8:07 PM
Waning Crescent, 29% visible
METAR KDAN 162053Z AUTO 11004KT 10SM SCT046 BKN060 BKN080 30/23 A3000 RMK AO2 SLP148 T03000233 56012
Pressure 29.97 in
Visibility 10.0 miles
Clouds Scattered Clouds 4600 ft
Mostly Cloudy 6000 ft
Mostly Cloudy 8000 ft
Heat Index 102 °F
Dew Point 74 °F
Humidity 56%
Rainfall 0.00 in
Snow Depth Not available.
6:36 AM 8:07 PM
Waning Crescent, 29% visible
METAR KDAN 162053Z AUTO 11004KT 10SM SCT046 BKN060 BKN080 30/23 A3000 RMK AO2 SLP148 T03000233 56012

Get Severe Weather Alerts

Thanks for signing up!

Be on the lookout for a verification email in your inbox.

You'll start receiving the daily forecast at 6 AM.

×

10-Day Weather Forecast

Almanac

Astronomy

Aug. 16, 2017 Rise Set
Actual Time
Civil Twilight
Nautical Twilight
Astronomical Twilight
Moon
Length of Visible Light
Length of Day
Tomorrow will be .
, % of the Moon is Illuminated

Today's Extremes

State Highs State Lows

Community

WunderPhotos

Category 6

Welcome to Category 6. This is the collective home for Weather Underground's featured writeups by Dr. Jeff Masters (right), Bob Henson (left), Chris Burt, and other regular contributors.

Nearby

Air Quality

  Air Quality AQ Index Pollutant
Not available.

Snow Depth

Station Depth Elevation

Earthquake Activity

City Distance Mag. Time & Date
Minimum magnitude displayed is 2.5.

Coastal Water Temperatures

Place Temperature

Stations

Nearby Weather Stations

Station Location Temp. Windchill Dew Point Humidity Wind Precip. Elev Updated Type
                   

Watches & Warnings

There are currently no watches in effect.